KNEL

Lakehurst Maxfield Field Airport

Lakehurst, New Jersey, USA
METAR KNEL 142355Z 26003KT 7SM SCT065 22/19 A2984 RMK AO2A SLPNO WND DATA ESTMD ALSTG ESTMD T02160191 $
Observed Flight Rules
Aug-14 @ 23:55 UTC (an hour ago) Visual Flight Rules
Wind Visibility Clouds
260° at 3 knots 7 miles
  • Scattered at 6,500' AGL
Temperatures Readings
Current 22°C / 72°F
Dewpoint 19°C / 66°F
Humidity 83%
Altimeter 29.84" Hg
Pressure 1010 hPa
Elevation 31
METAR KNEL 142355Z 26003KT 7SM SCT065 22/19 A2984 RMK AO2A SLPNO WND DATA ESTMD ALSTG ESTMD T02160191 $
Observed Flight Rules
Aug-14 @ 23:55 UTC
(an hour ago)
VFR
Wind Visibility
260° at 3 knots 7 miles
Clouds
  • Scattered at 6,500' AGL
Temperature Dewpoint
22°C / 72°F 19°C / 66°F
Humidity Altimeter Pressure
83% 29.84" Hg 1010 hPa